Chattaroy, Washington
Current Conditions -  °F | °C
As of 8:53 PM on Sunday 21 Dec 2014 (Local Time) from KDEW Reporting Station
Clear Clear  
Wind Chill: 30°   Ceiling: Unl
Heat Index: 38°   Visibility: 10mi
Dew Point: 34°   Wind: 12mph
Humidity: 86%   Direction: 170°S
Pressure: 29.92"   Gusts: NA
Location:  47.89°N, 117.36°W
Report Text: KDEW 220453Z AUTO 17010KT 10SM CLR 03/01 A2992 RMK AO2 SLP144 T00330011
Loading
Personal Weather Stations






























Interactive Weather Map New forecast layout! Learn more

10-Day Weather Forecast

Advertisements
Track Severe Weather on mobile